Time;durP1;ratioP1;P1;durP2;ratioP2;P2;SDS_P1;SDS_P2;PMS_P1;PMS_P2;Temp;Humidity;BMP_temperature;BMP_pressure;BME280_temperature;BME280_humidity;BME280_pressure;Samples;Min_cycle;Max_cycle;Signal;HPM_P1;HPM_P2
2021/03/11 00:00:09;;;;;;;22.95;13.40;;;;;;;-1.36;100.00;101431.81;4943441;29;20157;-78
2021/03/11 00:02:34;;;;;;;19.95;13.10;;;;;;;-1.30;100.00;101437.44;4975534;28;20023;-79
2021/03/11 00:05:00;;;;;;;21.90;13.77;;;;;;;-1.36;100.00;101432.66;4967475;28;20031;-78
2021/03/11 00:07:26;;;;;;;19.48;12.82;;;;;;;-1.36;100.00;101430.06;4969087;28;20381;-79
2021/03/11 00:09:51;;;;;;;22.95;13.63;;;;;;;-1.32;100.00;101430.66;4965667;28;20097;-78
2021/03/11 00:12:17;;;;;;;21.65;13.73;;;;;;;-1.38;100.00;101431.94;4965049;28;20514;-78
2021/03/11 00:14:42;;;;;;;22.50;14.02;;;;;;;-1.41;100.00;101429.56;4963907;28;20062;-79
2021/03/11 00:17:07;;;;;;;25.98;15.60;;;;;;;-1.46;100.00;101422.06;4964566;28;20105;-78
2021/03/11 00:19:34;;;;;;;21.67;12.73;;;;;;;-1.44;100.00;101427.16;4966917;28;20035;-78
2021/03/11 00:22:00;;;;;;;23.40;14.60;;;;;;;-1.50;100.00;101427.59;4956683;28;20034;-79
2021/03/11 00:24:27;;;;;;;25.20;14.68;;;;;;;-1.46;100.00;101439.47;4961156;28;20085;-78
2021/03/11 00:26:53;;;;;;;24.45;15.60;;;;;;;-1.50;100.00;101436.25;4966943;28;20038;-78
2021/03/11 00:29:19;;;;;;;21.10;13.07;;;;;;;-1.45;100.00;101441.97;4980075;28;20539;-78
2021/03/11 00:31:44;;;;;;;20.50;13.63;;;;;;;-1.49;100.00;101443.13;4964144;28;20388;-78
2021/03/11 00:34:10;;;;;;;21.23;15.98;;;;;;;-1.04;100.00;101439.91;4975581;28;20059;-78
2021/03/11 00:36:36;;;;;;;29.05;18.48;;;;;;;-1.59;100.00;101436.91;4957760;28;20436;-79
2021/03/11 00:39:03;;;;;;;27.40;15.75;;;;;;;-1.61;100.00;101429.19;4964566;28;20709;-78
2021/03/11 00:41:29;;;;;;;26.13;15.30;;;;;;;-1.59;100.00;101431.69;4965344;28;20031;-78
2021/03/11 00:43:54;;;;;;;26.13;16.58;;;;;;;-1.63;100.00;101425.88;4961693;28;20039;-77
2021/03/11 00:46:20;;;;;;;28.50;16.48;;;;;;;-1.65;100.00;101432.97;4963740;28;20039;-78
2021/03/11 00:48:46;;;;;;;28.42;18.15;;;;;;;-1.64;100.00;101432.00;4965615;28;20041;-78
2021/03/11 00:51:11;;;;;;;28.60;17.92;;;;;;;-1.45;100.00;101435.94;4940505;28;20027;-78
2021/03/11 00:53:37;;;;;;;24.95;15.85;;;;;;;-1.63;100.00;101436.31;4964292;28;20454;-79
2021/03/11 00:56:03;;;;;;;25.00;13.55;;;;;;;-1.61;100.00;101436.19;4947510;28;20034;-78
2021/03/11 00:58:28;;;;;;;27.58;16.10;;;;;;;-1.77;100.00;101427.78;4962790;28;20440;-78
2021/03/11 01:00:53;;;;;;;30.98;18.38;;;;;;;-1.79;100.00;101434.88;4968359;28;20043;-78
2021/03/11 01:03:19;;;;;;;29.38;17.17;;;;;;;-1.90;100.00;101435.66;4946136;29;20031;-78
2021/03/11 01:05:44;;;;;;;32.08;16.95;;;;;;;-1.96;100.00;101431.69;4972348;28;20372;-78
2021/03/11 01:08:10;;;;;;;38.05;21.98;;;;;;;-1.98;100.00;101443.97;4946852;28;20384;-78
2021/03/11 01:10:36;;;;;;;38.30;20.70;;;;;;;-1.84;100.00;101450.84;4962987;28;20027;-79
2021/03/11 01:13:02;;;;;;;33.90;17.45;;;;;;;-1.93;100.00;101441.91;4964502;28;20099;-78
2021/03/11 01:15:31;;;;;;;34.30;20.40;;;;;;;-2.03;100.00;101437.44;4969087;28;20110;-78
2021/03/11 01:17:57;;;;;;;37.42;19.27;;;;;;;-2.03;100.00;101447.84;4965332;28;20046;-78
2021/03/11 01:20:22;;;;;;;37.13;21.15;;;;;;;-1.98;100.00;101446.59;4969056;28;20035;-78
2021/03/11 01:22:48;;;;;;;41.63;22.77;;;;;;;-2.08;100.00;101446.41;4948789;29;20035;-78
2021/03/11 01:25:14;;;;;;;39.75;20.55;;;;;;;-2.16;100.00;101445.25;4965228;28;20023;-78
2021/03/11 01:27:39;;;;;;;38.95;20.67;;;;;;;-2.16;100.00;101437.44;4959308;28;20062;-78
2021/03/11 01:30:07;;;;;;;37.50;21.55;;;;;;;-2.20;100.00;101438.59;4964398;28;20448;-79
2021/03/11 01:32:32;;;;;;;44.00;23.58;;;;;;;-2.20;100.00;101441.22;4963617;28;20507;-78
2021/03/11 01:34:58;;;;;;;40.50;21.88;;;;;;;-2.15;100.00;101434.75;4949691;28;20030;-78
2021/03/11 01:37:23;;;;;;;42.40;24.35;;;;;;;-2.18;100.00;101444.53;4967925;28;20031;-78
2021/03/11 01:39:48;;;;;;;43.45;23.70;;;;;;;-2.21;100.00;101439.53;4964294;28;20481;-78
2021/03/11 01:42:15;;;;;;;44.60;24.90;;;;;;;-2.28;100.00;101430.50;4967045;28;20019;-77
2021/03/11 01:44:40;;;;;;;51.15;24.92;;;;;;;-2.24;100.00;101439.72;4956457;28;20033;-77
2021/03/11 01:47:06;;;;;;;49.45;26.48;;;;;;;-2.28;100.00;101436.53;4965378;28;20042;-78
2021/03/11 01:49:31;;;;;;;46.35;24.33;;;;;;;-2.29;100.00;101436.63;4968449;28;20050;-78
2021/03/11 01:51:57;;;;;;;44.63;22.65;;;;;;;-2.30;100.00;101446.19;4961452;28;20035;-79
2021/03/11 01:54:23;;;;;;;44.78;24.63;;;;;;;-2.32;100.00;101441.09;4962037;28;20035;-79
2021/03/11 01:56:49;;;;;;;51.05;24.80;;;;;;;-2.35;100.00;101443.91;4963437;28;20026;-79
2021/03/11 01:59:15;;;;;;;48.22;24.73;;;;;;;-2.35;100.00;101430.06;4951096;28;20066;-78
2021/03/11 02:01:41;;;;;;;53.28;31.02;;;;;;;-2.41;100.00;101446.94;4955438;28;20432;-77
2021/03/11 02:04:06;;;;;;;48.00;27.38;;;;;;;-2.42;100.00;101445.28;4962579;28;20038;-78
2021/03/11 02:06:31;;;;;;;49.92;27.08;;;;;;;-2.39;100.00;101445.06;4970256;28;20527;-78
2021/03/11 02:08:57;;;;;;;47.63;25.90;;;;;;;-2.32;100.00;101450.69;4967226;28;20026;-78
2021/03/11 02:11:26;;;;;;;45.28;26.40;;;;;;;-2.44;100.00;101446.31;4964779;28;20587;-78
2021/03/11 02:14:08;;;;;;;44.30;23.85;;;;;;;-2.47;100.00;101447.34;4944869;29;20047;-78
2021/03/11 02:16:49;;;;;;;42.88;23.83;;;;;;;-2.41;100.00;101456.50;4948977;29;20125;-78
2021/03/11 02:19:42;;;;;;;43.40;25.25;;;;;;;-2.51;100.00;101452.84;4964978;28;20379;-78
2021/03/11 02:22:34;;;;;;;42.33;23.90;;;;;;;-2.53;100.00;101460.78;4940959;28;20483;-78
2021/03/11 02:25:18;;;;;;;48.95;24.90;;;;;;;-2.55;100.00;101462.63;4964039;28;20097;-78
2021/03/11 02:28:21;;;;;;;46.05;23.60;;;;;;;-2.61;100.00;101463.88;4958963;28;20039;-78
2021/03/11 02:30:47;;;;;;;;;;;;;;;-2.56;100.00;101463.59;4944324;28;20031;-78
2021/03/11 02:33:14;;;;;;;48.20;24.30;;;;;;;-2.64;100.00;101466.69;4960367;28;20069;-77
2021/03/11 02:35:41;;;;;;;39.80;21.15;;;;;;;-2.62;100.00;101467.41;4968604;28;20026;-78
2021/03/11 02:38:10;;;;;;;44.72;22.60;;;;;;;-2.61;100.00;101471.69;4961703;28;20030;-78
2021/03/11 02:40:37;;;;;;;42.17;23.33;;;;;;;-2.62;100.00;101477.00;4959191;28;20391;-77
2021/03/11 02:43:08;;;;;;;43.47;22.02;;;;;;;-2.59;100.00;101476.78;4947420;28;20055;-78
2021/03/11 02:45:34;;;;;;;43.10;23.15;;;;;;;-2.67;100.00;101476.47;4959409;28;20038;-77
2021/03/11 02:48:03;;;;;;;46.55;25.02;;;;;;;-2.72;100.00;101481.13;4942537;28;20031;-77
2021/03/11 02:50:31;;;;;;;48.20;26.15;;;;;;;-2.72;100.00;101494.13;4955167;29;20034;-78
2021/03/11 02:52:59;;;;;;;42.72;22.95;;;;;;;-2.71;100.00;101512.25;4943634;28;20379;-78
2021/03/11 02:55:30;;;;;;;44.50;23.98;;;;;;;-2.67;100.00;101512.88;4964291;28;20023;-77
2021/03/11 02:57:57;;;;;;;41.75;24.05;;;;;;;-2.69;100.00;101507.78;4971477;28;20031;-78
2021/03/11 03:01:06;;;;;;;42.15;22.20;;;;;;;-2.66;100.00;101517.13;4953974;28;20034;-78
2021/03/11 03:03:33;;;;;;;40.25;20.65;;;;;;;-2.53;100.00;101520.59;4963229;28;20529;-78
2021/03/11 03:06:00;;;;;;;44.72;25.08;;;;;;;-2.70;100.00;101516.50;4969915;28;20035;-78
2021/03/11 03:08:26;;;;;;;44.65;25.55;;;;;;;-2.73;100.00;101513.28;4968687;28;20034;-78
2021/03/11 03:10:53;;;;;;;42.92;25.40;;;;;;;-2.66;100.00;101512.78;4949640;28;20038;-78
2021/03/11 03:13:20;;;;;;;45.28;25.30;;;;;;;-2.76;100.00;101517.72;4964447;28;20046;-78
2021/03/11 03:15:46;;;;;;;43.05;23.73;;;;;;;-2.77;100.00;101521.28;4970437;28;20102;-78
2021/03/11 03:18:14;;;;;;;46.95;29.15;;;;;;;-2.70;100.00;101526.91;4968317;28;20030;-78
2021/03/11 03:20:41;;;;;;;43.83;23.65;;;;;;;-2.74;100.00;101529.81;4959179;28;20081;-78
2021/03/11 03:23:07;;;;;;;36.80;18.92;;;;;;;-2.74;100.00;101529.81;4981125;28;20053;-78
2021/03/11 03:25:33;;;;;;;38.60;22.38;;;;;;;-2.80;100.00;101531.88;4967120;28;20121;-78
2021/03/11 03:27:59;;;;;;;39.78;23.48;;;;;;;-2.77;100.00;101525.66;4987128;28;20026;-78
2021/03/11 03:30:25;;;;;;;47.92;27.83;;;;;;;-2.80;100.00;101525.84;4964069;28;20034;-78
2021/03/11 03:32:50;;;;;;;41.83;22.98;;;;;;;-2.79;100.00;101528.31;4965934;28;20394;-78
2021/03/11 03:35:18;;;;;;;40.17;20.67;;;;;;;-2.76;100.00;101540.31;4971332;28;20395;-77
2021/03/11 03:37:43;;;;;;;45.90;24.70;;;;;;;-2.79;100.00;101532.69;4966926;28;20356;-77
2021/03/11 03:40:11;;;;;;;61.80;36.30;;;;;;;-2.77;100.00;101533.44;4971602;28;20040;-77
2021/03/11 03:42:46;;;;;;;70.25;41.28;;;;;;;-2.74;100.00;101542.81;4967042;28;20375;-78
2021/03/11 03:45:14;;;;;;;57.80;33.85;;;;;;;-2.71;100.00;101547.81;4990219;28;20057;-78
2021/03/11 03:47:43;;;;;;;53.85;30.02;;;;;;;-2.75;100.00;101555.00;4991235;28;20048;-77
2021/03/11 03:50:10;;;;;;;48.70;22.40;;;;;;;-2.70;100.00;101559.88;4969350;28;20109;-78
2021/03/11 03:52:39;;;;;;;45.95;25.80;;;;;;;-2.75;100.00;101557.59;4974697;28;20480;-78
2021/03/11 03:55:07;;;;;;;40.80;24.40;;;;;;;-2.74;100.00;101558.41;4968875;28;20476;-77
2021/03/11 03:57:33;;;;;;;52.58;30.25;;;;;;;-2.69;100.00;101564.13;4983333;28;20054;-78
2021/03/11 03:59:59;;;;;;;46.55;25.60;;;;;;;-2.74;100.00;101564.44;4972848;28;20031;-78
2021/03/11 04:02:25;;;;;;;57.58;32.60;;;;;;;-2.77;100.00;101569.84;4984547;28;20033;-80
2021/03/11 04:04:53;;;;;;;41.40;22.98;;;;;;;-2.72;100.00;101574.75;4970737;28;20408;-80
2021/03/11 04:07:22;;;;;;;53.88;29.67;;;;;;;-2.73;100.00;101583.50;4962881;28;20073;-80
2021/03/11 04:09:48;;;;;;;56.38;33.67;;;;;;;-2.79;100.00;101575.13;4972440;28;20097;-80
2021/03/11 04:12:16;;;;;;;47.47;27.20;;;;;;;-2.80;100.00;101577.84;4973271;28;20031;-79
2021/03/11 04:14:43;;;;;;;52.08;28.70;;;;;;;-2.76;100.00;101582.75;4972553;28;20043;-78
2021/03/11 04:17:10;;;;;;;57.47;32.97;;;;;;;-2.72;100.00;101582.53;4989965;28;20383;-80
2021/03/11 04:19:37;;;;;;;54.72;31.15;;;;;;;-2.76;100.00;101579.31;4971345;28;20026;-80
2021/03/11 04:22:04;;;;;;;56.38;32.40;;;;;;;-2.73;100.00;101592.13;4972481;28;20490;-80
2021/03/11 04:24:30;;;;;;;60.28;37.67;;;;;;;-2.76;100.00;101587.09;4967416;28;20196;-80
2021/03/11 04:27:00;;;;;;;57.35;36.63;;;;;;;-2.74;100.00;101597.44;4986227;28;20035;-81
2021/03/11 04:29:27;;;;;;;65.03;41.28;;;;;;;-2.71;100.00;101597.22;4972864;28;20038;-79
2021/03/11 04:31:53;;;;;;;67.72;42.45;;;;;;;-2.75;100.00;101607.00;4990442;28;20069;-78
2021/03/11 04:34:19;;;;;;;54.97;33.50;;;;;;;-2.80;100.00;101594.28;4974190;28;20062;-81
2021/03/11 04:36:45;;;;;;;59.40;37.60;;;;;;;-2.82;100.00;101585.72;4974916;28;20018;-78
2021/03/11 04:39:10;;;;;;;60.15;36.03;;;;;;;-2.71;100.00;101600.66;4988304;28;20049;-80
2021/03/11 04:41:36;;;;;;;53.35;36.50;;;;;;;-2.80;100.00;101598.66;4961019;28;20480;-79
2021/03/11 04:44:02;;;;;;;58.30;38.40;;;;;;;-2.80;100.00;101591.69;4967974;28;20109;-80
2021/03/11 04:46:29;;;;;;;70.28;47.55;;;;;;;-2.92;100.00;101600.25;4971619;28;20022;-80
2021/03/11 04:48:56;;;;;;;51.30;32.15;;;;;;;-2.87;100.00;101611.22;4973908;28;20072;-80
2021/03/11 04:51:22;;;;;;;55.88;37.63;;;;;;;-2.81;100.00;101623.00;4989220;28;20639;-80
2021/03/11 04:53:52;;;;;;;50.58;35.63;;;;;;;-2.82;100.00;101621.31;4986622;28;20030;-80
2021/03/11 04:56:17;;;;;;;61.78;33.60;;;;;;;-2.79;100.00;101616.75;4984623;28;20026;-81
2021/03/11 04:58:43;;;;;;;55.17;32.70;;;;;;;-2.88;100.00;101613.91;4982370;28;20038;-81
2021/03/11 05:01:11;;;;;;;58.25;28.27;;;;;;;-2.77;100.00;101614.06;4966447;28;20045;-80
2021/03/11 05:03:41;;;;;;;54.60;28.83;;;;;;;-2.83;100.00;101620.47;4968246;28;20082;-80
2021/03/11 05:06:07;;;;;;;48.03;26.67;;;;;;;-2.69;100.00;101630.03;4962417;28;20022;-80
2021/03/11 05:08:32;;;;;;;54.05;29.45;;;;;;;-2.77;100.00;101625.28;4989433;28;20026;-80
2021/03/11 05:10:57;;;;;;;50.47;26.77;;;;;;;-2.79;100.00;101628.91;4971923;28;20022;-79
2021/03/11 05:13:23;;;;;;;45.85;24.08;;;;;;;-2.73;100.00;101632.91;4966821;28;20038;-80
2021/03/11 05:15:48;;;;;;;46.35;27.77;;;;;;;-2.70;100.00;101632.69;4953888;28;20092;-80
2021/03/11 05:18:14;;;;;;;61.42;30.50;;;;;;;-2.70;100.00;101640.50;4952511;28;20027;-80
2021/03/11 05:20:39;;;;;;;51.50;30.17;;;;;;;-2.67;100.00;101638.53;4955529;28;20044;-80
2021/03/11 05:23:05;;;;;;;55.88;28.85;;;;;;;-2.66;100.00;101645.44;4954153;28;20030;-80
2021/03/11 05:25:30;;;;;;;58.25;30.58;;;;;;;-2.82;100.00;101645.53;4954216;28;20435;-79
2021/03/11 05:27:56;;;;;;;52.40;27.92;;;;;;;-2.70;100.00;101656.94;4949453;28;20519;-79
2021/03/11 05:30:22;;;;;;;53.80;27.38;;;;;;;-2.62;100.00;101659.06;4947211;28;20034;-80
2021/03/11 05:32:47;;;;;;;53.42;26.65;;;;;;;-2.69;100.00;101668.16;4953902;28;20035;-79
2021/03/11 05:35:13;;;;;;;52.13;28.45;;;;;;;-2.70;100.00;101674.31;4952738;29;20118;-80
2021/03/11 05:37:40;;;;;;;44.17;22.88;;;;;;;-2.58;100.00;101682.16;4948699;28;20113;-79
2021/03/11 05:40:11;;;;;;;56.00;29.42;;;;;;;-2.53;100.00;101687.09;4949843;28;20054;-79
2021/03/11 05:42:38;;;;;;;56.00;29.30;;;;;;;-2.43;100.00;101697.75;4959290;28;20284;-79
2021/03/11 05:45:06;;;;;;;46.10;24.38;;;;;;;-2.52;100.00;101693.97;4947432;28;20408;-79
2021/03/11 05:47:33;;;;;;;50.40;25.60;;;;;;;-2.54;100.00;101701.06;4958599;28;20102;-78
2021/03/11 05:49:59;;;;;;;51.47;28.13;;;;;;;-2.60;100.00;101701.44;4967170;28;20052;-80
2021/03/11 05:52:26;;;;;;;45.65;25.83;;;;;;;-2.38;100.00;101706.09;4980564;28;20035;-78
2021/03/11 05:54:53;;;;;;;53.70;26.08;;;;;;;-2.47;100.00;101709.28;4961590;28;20035;-78
2021/03/11 05:57:19;;;;;;;38.20;21.17;;;;;;;-2.59;100.00;101711.72;4950486;28;20042;-79
2021/03/11 05:59:45;;;;;;;40.45;24.15;;;;;;;-2.35;100.00;101719.75;4978230;28;20027;-80
2021/03/11 06:02:10;;;;;;;43.50;23.45;;;;;;;-2.28;100.00;101714.97;4943779;28;20387;-79
2021/03/11 06:04:36;;;;;;;41.88;23.42;;;;;;;-2.24;100.00;101719.09;4953162;28;20019;-80
2021/03/11 06:07:02;;;;;;;40.42;23.60;;;;;;;-2.38;100.00;101732.13;4947844;28;20395;-79
2021/03/11 06:09:29;;;;;;;40.38;24.00;;;;;;;-2.24;100.00;101733.84;4949981;28;20023;-80
2021/03/11 06:11:56;;;;;;;52.88;28.45;;;;;;;-1.99;100.00;101731.34;4947595;28;20027;-80
2021/03/11 06:14:25;;;;;;;41.00;22.75;;;;;;;-2.20;100.00;101736.16;4962735;28;20497;-80
2021/03/11 06:16:58;;;;;;;38.63;23.05;;;;;;;-2.14;100.00;101743.56;4973942;28;20482;-80
2021/03/11 06:19:24;;;;;;;35.65;23.02;;;;;;;-2.15;100.00;101741.91;4957165;28;20033;-80
2021/03/11 06:21:53;;;;;;;41.58;24.75;;;;;;;-2.10;100.00;101752.84;4979824;28;20022;-80
2021/03/11 06:24:21;;;;;;;42.58;22.55;;;;;;;-2.13;100.00;101744.41;4967592;28;20026;-80
2021/03/11 06:26:47;;;;;;;39.30;23.85;;;;;;;-2.07;100.00;101750.03;4982701;28;20018;-80
2021/03/11 06:29:15;;;;;;;38.33;23.50;;;;;;;-2.03;100.00;101752.44;4961099;28;20398;-80
2021/03/11 06:31:40;;;;;;;37.25;24.17;;;;;;;-1.89;100.00;101761.03;4976447;28;20142;-79
2021/03/11 06:34:22;;;;;;;39.30;28.10;;;;;;;-1.85;100.00;101767.75;4970701;28;20041;-79
2021/03/11 06:36:49;;;;;;;46.10;27.48;;;;;;;-1.94;100.00;101777.91;4959313;28;20033;-79
2021/03/11 06:39:26;;;;;;;31.73;23.30;;;;;;;-1.99;100.00;101772.16;4978275;28;20050;-79
2021/03/11 06:41:52;;;;;;;35.55;25.02;;;;;;;-1.96;100.00;101783.22;4975244;28;20029;-80
2021/03/11 06:44:17;;;;;;;38.08;24.42;;;;;;;-1.89;100.00;101788.88;4975371;28;20410;-80
2021/03/11 06:47:03;;;;;;;33.47;22.73;;;;;;;-1.79;100.00;101796.91;4952637;28;20090;-78
2021/03/11 06:49:29;;;;;;;38.20;24.83;;;;;;;-1.65;100.00;101802.06;4983161;28;20040;-79
2021/03/11 06:52:15;;;;;;;39.42;25.15;;;;;;;-1.57;100.00;101797.19;4967666;28;20374;-79
2021/03/11 06:54:50;;;;;;;36.88;27.85;;;;;;;-1.48;100.00;101814.00;4965165;28;20109;-79
2021/03/11 06:57:29;;;;;;;39.08;30.48;;;;;;;-1.34;100.00;101813.06;4985263;28;20031;-79
2021/03/11 06:59:56;;;;;;;34.33;24.73;;;;;;;-1.46;100.00;101814.72;4968868;28;20029;-79
2021/03/11 07:02:23;;;;;;;36.15;24.48;;;;;;;-1.49;100.00;101823.56;4967912;28;20030;-80
2021/03/11 07:04:49;;;;;;;35.03;27.20;;;;;;;-1.42;100.00;101819.66;4983899;28;20445;-79
2021/03/11 07:07:19;;;;;;;35.83;24.25;;;;;;;-1.37;100.00;101832.34;4969117;28;20150;-80
2021/03/11 07:09:46;;;;;;;32.92;23.63;;;;;;;-1.31;100.00;101828.50;4962688;28;20034;-79
2021/03/11 07:12:11;;;;;;;37.75;24.83;;;;;;;-1.30;100.00;101824.97;4986849;28;20027;-80
2021/03/11 07:14:37;;;;;;;38.20;28.58;;;;;;;-1.36;100.00;101830.56;4974761;28;20486;-80
2021/03/11 07:17:21;;;;;;;39.38;28.65;;;;;;;-1.33;100.00;101823.41;4991409;28;20042;-80
2021/03/11 07:20:13;;;;;;;37.58;26.55;;;;;;;-0.96;100.00;101826.16;4989982;28;20384;-79
2021/03/11 07:22:39;;;;;;;40.03;28.13;;;;;;;-1.11;100.00;101827.19;4988597;28;20030;-80
2021/03/11 07:25:34;;;;;;;33.03;25.08;;;;;;;-0.72;100.00;101841.91;4972115;28;20049;-80
2021/03/11 07:28:02;;;;;;;32.60;25.10;;;;;;;-0.61;100.00;101831.56;4983656;28;20027;-79
2021/03/11 07:30:27;;;;;;;34.83;27.42;;;;;;;0.37;100.00;101842.06;4991770;28;20030;-75
2021/03/11 07:32:58;;;;;;;34.60;26.02;;;;;;;-0.28;100.00;101849.25;4975415;28;20086;-76
2021/03/11 07:35:27;;;;;;;33.28;28.55;;;;;;;-0.19;100.00;101857.41;4977088;28;20073;-75
2021/03/11 07:37:56;;;;;;;82.55;69.03;;;;;;;3.72;100.00;101863.38;4986330;28;20510;-76
2021/03/11 07:40:23;;;;;;;177.60;147.32;;;;;;;5.35;100.00;101862.72;4972892;28;20037;-77
2021/03/11 07:42:49;;;;;;;37.13;33.72;;;;;;;1.84;100.00;101860.47;4968771;28;20521;-71
2021/03/11 07:45:15;;;;;;;42.67;36.22;;;;;;;0.83;100.00;101854.34;4973873;28;20030;-73
2021/03/11 07:47:41;;;;;;;37.85;33.33;;;;;;;1.22;100.00;101863.59;4972954;28;20033;-71
2021/03/11 07:50:09;;;;;;;34.60;30.90;;;;;;;0.68;100.00;101869.41;4980836;28;20112;-71
2021/03/11 07:52:35;;;;;;;51.28;36.83;;;;;;;0.98;100.00;101881.16;4981481;28;20381;-71
2021/03/11 07:55:03;;;;;;;45.83;39.10;;;;;;;0.87;100.00;101869.69;4978942;28;20105;-71
2021/03/11 07:57:32;;;;;;;41.28;32.67;;;;;;;1.81;100.00;101865.13;4974004;28;20026;-72
2021/03/11 07:59:58;;;;;;;41.03;34.53;;;;;;;1.65;100.00;101865.50;4973428;28;20042;-71
2021/03/11 08:02:25;;;;;;;37.53;33.45;;;;;;;1.16;100.00;101858.00;4990564;28;20022;-71
2021/03/11 08:04:51;;;;;;;34.75;31.05;;;;;;;0.88;100.00;101855.69;4993987;28;20032;-71
2021/03/11 08:07:21;;;;;;;35.50;31.92;;;;;;;1.35;100.00;101859.06;4989846;28;20616;-71
2021/03/11 08:09:48;;;;;;;38.63;32.80;;;;;;;1.97;100.00;101870.03;4970598;28;20027;-71
2021/03/11 08:12:38;;;;;;;34.20;30.85;;;;;;;2.01;100.00;101869.63;4990000;28;20026;-71
2021/03/11 08:15:11;;;;;;;34.00;30.65;;;;;;;1.50;100.00;101869.31;4986406;28;20068;-72
2021/03/11 08:17:39;;;;;;;34.47;30.85;;;;;;;2.26;100.00;101875.53;4968975;28;20204;-71
2021/03/11 08:20:06;;;;;;;36.20;32.13;;;;;;;1.57;100.00;101876.59;4989745;28;20038;-71
2021/03/11 08:22:51;;;;;;;37.05;31.45;;;;;;;2.21;100.00;101880.31;4996951;28;20505;-71
2021/03/11 08:25:32;;;;;;;34.25;30.58;;;;;;;2.17;100.00;101884.16;4975025;28;20038;-71
2021/03/11 08:27:57;;;;;;;34.63;30.92;;;;;;;2.86;100.00;101881.16;4988017;28;20034;-71
2021/03/11 08:30:38;;;;;;;37.30;33.28;;;;;;;3.27;100.00;101890.84;4982517;28;20476;-71
2021/03/11 08:33:32;;;;;;;37.80;33.83;;;;;;;3.57;100.00;101900.53;4986020;28;20458;-71
2021/03/11 08:35:58;;;;;;;83.00;53.47;;;;;;;3.64;100.00;101899.03;4974291;28;20500;-71
2021/03/11 08:38:24;;;;;;;38.53;34.63;;;;;;;4.16;100.00;101903.38;4992150;28;20112;-71
2021/03/11 08:41:04;;;;;;;36.25;32.63;;;;;;;2.91;100.00;101900.00;4965655;28;20058;-71
2021/03/11 08:43:35;;;;;;;37.40;33.88;;;;;;;3.11;100.00;101898.31;4975400;28;20026;-71
2021/03/11 08:46:10;;;;;;;36.97;33.28;;;;;;;5.15;100.00;101902.28;4983555;28;20030;-71
2021/03/11 08:48:50;;;;;;;38.72;35.20;;;;;;;5.02;100.00;101907.84;4978872;28;20045;-71
2021/03/11 08:51:18;;;;;;;39.42;35.58;;;;;;;5.56;100.00;101923.94;4966320;28;20034;-70
2021/03/11 08:53:56;;;;;;;38.60;34.92;;;;;;;5.11;100.00;101921.13;4985350;28;20072;-71
2021/03/11 08:56:21;;;;;;;39.88;35.85;;;;;;;6.17;100.00;101926.09;4981649;28;20112;-71
2021/03/11 08:59:10;;;;;;;38.03;34.25;;;;;;;4.92;100.00;101933.34;4983273;28;20109;-71
2021/03/11 09:01:49;;;;;;;39.75;36.25;;;;;;;4.48;100.00;101929.44;4968084;28;20053;-71
2021/03/11 09:04:20;;;;;;;37.35;34.10;;;;;;;4.30;100.00;101926.66;4970200;28;20046;-71
2021/03/11 09:07:08;;;;;;;38.22;34.88;;;;;;;4.79;100.00;101935.44;4966219;28;20038;-71
2021/03/11 09:09:48;;;;;;;38.10;34.53;;;;;;;5.72;100.00;101931.28;4993258;28;20061;-71
2021/03/11 09:12:18;;;;;;;38.92;35.58;;;;;;;5.44;100.00;101940.91;4961428;28;20498;-71
2021/03/11 09:14:46;;;;;;;37.25;34.05;;;;;;;5.92;100.00;101940.75;4976440;28;20471;-71
2021/03/11 09:17:14;;;;;;;41.05;37.55;;;;;;;5.11;100.00;101950.09;4983526;28;20058;-71
2021/03/11 09:19:45;;;;;;;41.90;37.88;;;;;;;5.84;100.00;101950.34;4968661;28;20504;-71
2021/03/11 09:22:17;;;;;;;39.67;36.22;;;;;;;5.53;100.00;101945.31;4969837;28;20034;-71
2021/03/11 09:25:13;;;;;;;40.95;37.65;;;;;;;5.38;100.00;101954.66;4985920;28;20738;-71
2021/03/11 09:27:50;;;;;;;39.25;35.47;;;;;;;4.99;100.00;101963.44;4971492;28;20084;-71
2021/03/11 09:30:23;;;;;;;39.10;35.45;;;;;;;5.34;100.00;101964.66;4962974;28;20031;-71
2021/03/11 09:32:48;;;;;;;40.70;37.30;;;;;;;5.55;100.00;101963.63;4982275;28;20360;-71
2021/03/11 09:35:16;;;;;;;40.85;36.95;;;;;;;6.04;100.00;101957.25;4983465;28;20066;-71
2021/03/11 09:37:49;;;;;;;41.03;37.58;;;;;;;7.50;100.00;101961.44;4983501;28;20472;-71
2021/03/11 09:40:45;;;;;;;38.35;34.83;;;;;;;6.48;100.00;101968.00;4984696;28;20472;-71
2021/03/11 09:43:20;;;;;;;38.83;35.47;;;;;;;6.84;100.00;101970.69;4970264;28;20146;-71
2021/03/11 09:45:49;;;;;;;38.80;35.38;;;;;;;5.79;100.00;101971.06;4968105;28;20038;-71
2021/03/11 09:48:16;;;;;;;39.42;35.58;;;;;;;5.66;100.00;101971.38;4969736;28;20089;-71
2021/03/11 09:51:18;;;;;;;39.92;36.03;;;;;;;4.70;100.00;101973.13;4970626;28;20043;-71
2021/03/11 09:54:04;;;;;;;36.28;33.08;;;;;;;7.14;100.00;101989.75;4962828;28;20049;-71
2021/03/11 09:56:40;;;;;;;39.85;36.10;;;;;;;7.49;100.00;101980.94;4969486;28;20044;-71
2021/03/11 09:59:11;;;;;;;38.75;35.45;;;;;;;5.07;100.00;101983.78;4974742;28;20026;-71
2021/03/11 10:01:38;;;;;;;37.85;34.60;;;;;;;6.90;100.00;101980.63;4977337;28;20034;-71
2021/03/11 10:04:27;;;;;;;38.80;35.40;;;;;;;7.49;100.00;101980.94;4983533;28;20035;-71
2021/03/11 10:07:05;;;;;;;41.50;37.47;;;;;;;5.80;100.00;101985.91;4977142;28;20038;-71
2021/03/11 10:09:45;;;;;;;37.40;34.10;;;;;;;7.13;100.00;101994.19;4957921;28;20082;-71
2021/03/11 10:12:11;;;;;;;39.08;35.67;;;;;;;5.38;100.00;101996.81;4985198;28;20026;-71
2021/03/11 10:14:37;;;;;;;36.35;33.22;;;;;;;6.70;100.00;102005.50;4962536;28;20061;-72
2021/03/11 10:17:04;;;;;;;36.92;33.70;;;;;;;7.34;100.00;102007.09;4979640;28;20050;-72
2021/03/11 10:19:36;;;;;;;37.55;34.53;;;;;;;7.83;100.00;102007.44;4968460;28;20371;-72
2021/03/11 10:22:16;;;;;;;39.90;35.88;;;;;;;7.82;100.00;102000.50;4982926;28;20018;-72
2021/03/11 10:24:51;;;;;;;38.10;34.97;;;;;;;7.29;100.00;101994.34;4972200;28;20035;-71
2021/03/11 10:27:24;;;;;;;38.33;35.03;;;;;;;8.05;100.00;101984.91;4971349;28;20394;-72
2021/03/11 10:30:10;;;;;;;38.53;35.53;;;;;;;6.81;100.00;101984.19;4967008;28;20461;-71
2021/03/11 10:32:39;;;;;;;38.15;35.03;;;;;;;7.58;100.00;101985.28;4963151;28;20039;-71
2021/03/11 10:35:07;;;;;;;38.17;35.38;;;;;;;7.13;99.76;101988.09;4983020;28;20063;-71
2021/03/11 10:37:36;;;;;;;36.17;33.78;;;;;;;5.54;100.00;101993.59;4975062;28;20030;-71
2021/03/11 10:40:07;;;;;;;37.92;34.90;;;;;;;8.65;100.00;101995.41;4970204;28;20030;-72
2021/03/11 10:42:45;;;;;;;54.78;49.35;;;;;;;6.86;98.29;102003.84;4966954;28;20041;-71
2021/03/11 10:45:16;;;;;;;39.70;36.35;;;;;;;8.40;100.00;101993.66;4970011;28;20383;-71
2021/03/11 10:47:43;;;;;;;37.33;34.40;;;;;;;9.21;100.00;101995.63;4986609;28;20042;-71
2021/03/11 10:50:22;;;;;;;37.78;35.17;;;;;;;8.60;92.37;102000.38;4989481;28;20113;-71
2021/03/11 10:52:52;;;;;;;37.30;34.03;;;;;;;9.01;94.34;101997.78;4974348;28;20044;-71
2021/03/11 10:55:31;;;;;;;35.95;33.25;;;;;;;9.06;95.81;101992.00;4977769;28;20034;-72
2021/03/11 10:57:57;;;;;;;35.08;32.60;;;;;;;8.82;81.97;101993.63;4975145;28;20471;-71
2021/03/11 11:00:25;;;;;;;33.60;31.15;;;;;;;8.94;84.27;101994.13;4989603;28;20057;-71
2021/03/11 11:02:55;;;;;;;35.40;32.92;;;;;;;8.02;82.50;101988.69;4975686;28;20147;-71
2021/03/11 11:05:21;;;;;;;37.40;34.58;;;;;;;8.46;90.04;101991.22;4968970;28;20546;-71
2021/03/11 11:07:47;;;;;;;34.50;31.88;;;;;;;9.16;79.80;101987.34;4989987;28;20169;-71
2021/03/11 11:10:15;;;;;;;34.90;32.00;;;;;;;7.51;90.38;101985.09;4976885;28;20242;-71
2021/03/11 11:12:40;;;;;;;36.72;33.83;;;;;;;6.96;95.52;101992.38;4987802;28;20101;-71
2021/03/11 11:15:06;;;;;;;36.78;33.70;;;;;;;7.11;93.89;101993.53;4993525;28;20478;-71